Airfield :
LOGIN :

Register | Disclaimer

   EN    FR    IT 

 










Legend :    VFR   Marginal VFR   IFR   Intensive IFR   Very Intensive IFR
Visi :
Ceiling :
>= 8 km
>= 3000ft
5 to 8 km
1000 to 3000 ft
1500m to 5 km
500 to 1000 ft
800 to 1500m
200 to 500 ft
< 800m
< 200 ft
Symbols :   Thunderstorms  Fog  Heavy snow  Heavy precipitations  Wind > 20 kt
SIGMETs :     Misc.  Thunderstorms  Icing  Turbulence  Mountain Waves  Volcanic Ashes






- Airport Elevation : 160 ft
- IATA code : FMO


EDDG - Münster Osnabrück Int.

CURRENT METAR :
  • 032120Z VRB02KT CAVOK 16/12 Q1019 NOSIG

EXPIRED METARs :
  • 032050Z 29004KT CAVOK 17/12 Q1019 NOSIG
  • 032020Z 30005KT 270V330 CAVOK 18/12 Q1019 NOSIG
  • 031950Z 30008KT 270V330 CAVOK 19/12 Q1018 BECMG 28003KT
  • 031920Z 31009KT 270V340 CAVOK 20/12 Q1018 BECMG 28003KT
  • 031850Z 30010KT 270V330 CAVOK 20/12 Q1018 NOSIG
  • 031820Z 29010KT 270V330 CAVOK 21/13 Q1018 NOSIG

TAF TAF EDDG
Valid from the 03 at 18:00 until the 04 at 18:00 UTC


031700Z 0318/0418 28010KT CAVOK
BECMG 0318/0320 28005KT
BECMG 0320/0322 VRB03KT
PROB30
TEMPO 0403/0405 4500 BR
BECMG 0407/0410 24009KT



MET'MAP, your aeronautical weather chart ! - Copyright ORBIFLY December 2007 - Disclaimer

ORBIFLY MET'MAP TEAM :

Programming & Development : Alexandra Zaïnal
Original concept : Baudouin d'Aumeries
Technical & hardware support : Manuel Goepfert
Assistance : Marc-Olivier Méhu




SOURCES & CREDITS :

   NOAA